Time;durP1;ratioP1;P1;durP2;ratioP2;P2;SDS_P1;SDS_P2;PMS_P1;PMS_P2;Temp;Humidity;BMP_temperature;BMP_pressure;BME280_temperature;BME280_humidity;BME280_pressure;Samples;Min_cycle;Max_cycle;Signal;HPM_P1;HPM_P2
2023/08/26 00:00:19;;;;;;;26.88;14.65;;;;;;;23.90;81.57;95174.47;5002703;28;20372;-76
2023/08/26 00:02:44;;;;;;;31.52;14.27;;;;;;;23.77;82.14;95175.06;5010543;28;20247;-77
2023/08/26 00:05:10;;;;;;;24.20;14.27;;;;;;;23.94;81.03;95174.69;5004505;28;20263;-76
2023/08/26 00:07:36;;;;;;;23.92;14.55;;;;;;;23.97;80.96;95179.50;5010335;28;20230;-77
2023/08/26 00:10:02;;;;;;;25.33;14.55;;;;;;;23.87;81.21;95175.00;5029748;28;20222;-76
2023/08/26 00:12:27;;;;;;;21.95;14.50;;;;;;;23.95;81.45;95174.41;4992210;28;20237;-77
2023/08/26 00:14:53;;;;;;;24.27;14.68;;;;;;;23.92;81.60;95171.50;5029237;28;20224;-77
2023/08/26 00:17:18;;;;;;;23.45;14.07;;;;;;;24.00;81.08;95181.63;5013303;28;20235;-76
2023/08/26 00:19:44;;;;;;;25.85;14.45;;;;;;;23.81;81.65;95180.66;5026748;28;20240;-76
2023/08/26 00:22:11;;;;;;;27.52;14.57;;;;;;;23.84;81.68;95175.56;4994776;28;20237;-75
2023/08/26 00:24:36;;;;;;;21.40;13.85;;;;;;;23.81;81.97;95176.09;5014618;28;20228;-76
2023/08/26 00:27:02;;;;;;;22.65;14.20;;;;;;;23.78;82.07;95182.00;5016548;28;20229;-76
2023/08/26 00:29:28;;;;;;;22.55;14.07;;;;;;;23.55;83.10;95179.97;5032603;28;20225;-75
2023/08/26 00:31:53;;;;;;;22.13;14.10;;;;;;;23.62;83.17;95177.78;5006457;28;20226;-77
2023/08/26 00:34:19;;;;;;;22.52;14.80;;;;;;;23.54;82.96;95164.22;5010131;28;20232;-75
2023/08/26 00:36:45;;;;;;;24.35;13.82;;;;;;;23.55;82.98;95166.59;5013253;28;20217;-77
2023/08/26 00:39:10;;;;;;;20.23;13.95;;;;;;;23.67;82.27;95163.63;5011341;28;20279;-77
2023/08/26 00:41:36;;;;;;;20.55;13.95;;;;;;;23.74;81.38;95167.56;5033518;28;20616;-76
2023/08/26 00:44:01;;;;;;;23.85;13.60;;;;;;;23.72;81.64;95167.06;5000729;28;20750;-77
2023/08/26 00:46:27;;;;;;;22.13;13.10;;;;;;;23.45;82.06;95170.13;5000728;28;20744;-76
2023/08/26 00:48:52;;;;;;;19.52;13.07;;;;;;;23.52;81.65;95161.03;5010743;28;20222;-77
2023/08/26 00:51:19;;;;;;;20.45;13.02;;;;;;;23.42;81.50;95167.19;5034308;28;20278;-76
2023/08/26 00:53:45;;;;;;;21.63;12.63;;;;;;;23.46;81.40;95165.56;5018767;28;20287;-76
2023/08/26 00:56:11;;;;;;;19.30;12.80;;;;;;;23.49;81.23;95158.88;5022894;28;20236;-76
2023/08/26 00:58:36;;;;;;;20.35;13.18;;;;;;;23.24;81.54;95157.88;5013715;28;20280;-77
2023/08/26 01:01:03;;;;;;;19.90;12.73;;;;;;;23.35;81.49;95166.69;4994584;28;20733;-75
2023/08/26 01:03:28;;;;;;;17.90;12.43;;;;;;;23.10;82.47;95161.38;5019272;28;20260;-76
2023/08/26 01:05:54;;;;;;;17.73;13.00;;;;;;;23.15;82.49;95162.19;5024743;28;20225;-76
2023/08/26 01:08:19;;;;;;;20.05;12.77;;;;;;;23.36;81.40;95163.75;4990505;28;20225;-77
2023/08/26 01:11:09;;;;;;;17.33;12.77;;;;;;;23.21;82.12;95169.13;5010417;28;20233;-77
2023/08/26 01:13:41;;;;;;;20.98;12.10;;;;;;;23.25;81.72;95162.16;5024828;28;20233;-77
2023/08/26 01:16:06;;;;;;;19.20;12.20;;;;;;;23.10;82.63;95161.38;5017076;28;20296;-77
2023/08/26 01:18:32;;;;;;;19.25;12.15;;;;;;;23.15;83.03;95167.53;5009201;28;20229;-77
2023/08/26 01:20:58;;;;;;;18.92;12.63;;;;;;;23.31;81.80;95161.06;5006284;28;20270;-77
2023/08/26 01:23:43;;;;;;;19.45;12.25;;;;;;;23.17;82.27;95165.38;5018365;28;20741;-76
2023/08/26 01:26:09;;;;;;;17.13;11.73;;;;;;;23.31;81.92;95162.91;5013625;28;20229;-77
2023/08/26 01:28:34;;;;;;;23.08;13.77;;;;;;;23.29;81.62;95162.41;4999727;28;20226;-77
2023/08/26 01:31:10;;;;;;;21.42;13.15;;;;;;;23.21;82.45;95158.44;5029767;28;21030;-76
2023/08/26 01:33:40;;;;;;;24.85;13.48;;;;;;;23.15;82.28;95158.69;5032673;28;20320;-77
2023/08/26 01:36:07;;;;;;;21.88;14.00;;;;;;;23.24;81.73;95157.88;5022703;28;20225;-77
2023/08/26 01:38:33;;;;;;;24.58;14.95;;;;;;;22.98;82.80;95155.53;5025738;28;20235;-77
2023/08/26 01:40:59;;;;;;;25.52;14.10;;;;;;;23.02;83.22;95165.44;5000674;28;20233;-76
2023/08/26 01:43:25;;;;;;;23.10;14.63;;;;;;;23.27;81.58;95161.88;5015445;28;20708;-76
2023/08/26 01:45:53;;;;;;;26.10;15.10;;;;;;;23.11;82.56;95157.66;5019531;28;20664;-76
2023/08/26 01:48:19;;;;;;;22.95;14.52;;;;;;;23.20;82.18;95153.34;5020736;28;20379;-77
2023/08/26 01:50:45;;;;;;;23.73;14.50;;;;;;;23.20;81.77;95146.16;5031498;28;20225;-77
2023/08/26 01:53:11;;;;;;;23.05;14.65;;;;;;;23.09;82.20;95151.78;5025990;28;20237;-76
2023/08/26 01:55:36;;;;;;;23.80;14.77;;;;;;;23.12;81.73;95161.94;4998817;28;20229;-76
2023/08/26 01:58:02;;;;;;;26.15;14.80;;;;;;;23.10;82.21;95158.72;4996513;28;20714;-76
2023/08/26 02:00:28;;;;;;;27.05;15.13;;;;;;;23.18;81.69;95160.84;5031048;28;20232;-76
2023/08/26 02:02:53;;;;;;;23.67;14.35;;;;;;;23.18;81.96;95158.97;4992924;28;20267;-76
2023/08/26 02:05:18;;;;;;;24.55;13.90;;;;;;;23.12;82.16;95162.72;5011358;28;20225;-76
2023/08/26 02:07:44;;;;;;;23.08;13.82;;;;;;;22.95;82.86;95154.22;5014590;28;20244;-77
2023/08/26 02:10:10;;;;;;;21.10;13.73;;;;;;;23.05;82.25;95150.72;4998484;28;20278;-77
2023/08/26 02:12:35;;;;;;;20.55;13.52;;;;;;;23.00;82.69;95151.53;5014347;28;20272;-76
2023/08/26 02:15:02;;;;;;;21.60;13.32;;;;;;;22.98;82.72;95144.84;5029929;28;20221;-77
2023/08/26 02:17:28;;;;;;;24.13;13.57;;;;;;;22.76;83.91;95151.31;4997280;28;20221;-75
2023/08/26 02:19:54;;;;;;;22.13;13.80;;;;;;;22.58;84.73;95148.38;5007433;28;20239;-77
2023/08/26 02:22:19;;;;;;;19.95;13.60;;;;;;;22.54;85.01;95147.31;5010486;28;20224;-77
2023/08/26 02:24:45;;;;;;;22.23;13.32;;;;;;;22.78;83.75;95151.84;5027826;28;20280;-76
2023/08/26 02:27:11;;;;;;;24.48;13.20;;;;;;;22.64;84.50;95145.47;5009360;28;20230;-76
2023/08/26 02:29:37;;;;;;;21.83;13.65;;;;;;;22.76;84.16;95142.50;5008463;28;20283;-76
2023/08/26 02:32:03;;;;;;;21.05;13.27;;;;;;;22.75;84.04;95140.91;5007479;28;20229;-76
2023/08/26 02:34:28;;;;;;;21.42;13.27;;;;;;;22.59;85.01;95144.66;5011274;28;20226;-76
2023/08/26 02:36:54;;;;;;;20.25;13.07;;;;;;;22.54;85.56;95142.00;4995783;28;20230;-77
2023/08/26 02:39:20;;;;;;;19.75;13.07;;;;;;;22.48;85.50;95140.38;5011531;28;20228;-76
2023/08/26 02:41:45;;;;;;;20.35;13.23;;;;;;;22.59;84.79;95144.66;5005165;28;20241;-76
2023/08/26 02:44:11;;;;;;;18.63;12.45;;;;;;;22.56;84.83;95140.66;5015052;28;20671;-77
2023/08/26 02:46:36;;;;;;;21.88;13.25;;;;;;;22.70;84.33;95143.59;4998356;28;20278;-75
2023/08/26 02:49:02;;;;;;;23.42;12.90;;;;;;;22.77;84.16;95136.91;5010359;28;20248;-77
2023/08/26 02:51:27;;;;;;;21.92;12.75;;;;;;;22.75;84.05;95139.06;5013520;28;20233;-76
2023/08/26 02:53:53;;;;;;;21.02;12.55;;;;;;;22.64;84.47;95137.44;5017290;28;20225;-76
2023/08/26 02:56:19;;;;;;;21.02;12.85;;;;;;;22.46;85.27;95135.31;5009986;28;20249;-77
2023/08/26 02:58:44;;;;;;;18.58;12.55;;;;;;;22.60;84.40;95139.03;5003769;28;20640;-77
2023/08/26 03:01:10;;;;;;;20.23;12.18;;;;;;;22.56;84.61;95143.31;5033842;28;20218;-77
2023/08/26 03:03:35;;;;;;;21.40;13.35;;;;;;;22.52;85.00;95136.91;5012659;28;20241;-77
2023/08/26 03:06:01;;;;;;;20.15;12.70;;;;;;;22.53;85.09;95148.38;5028902;28;20220;-77
2023/08/26 03:08:27;;;;;;;18.52;12.63;;;;;;;22.66;84.42;95143.31;5009840;28;20221;-76
2023/08/26 03:11:04;;;;;;;19.35;12.52;;;;;;;22.57;84.89;95138.78;5012412;28;20228;-76
2023/08/26 03:13:30;;;;;;;20.85;12.90;;;;;;;22.59;84.47;95139.31;5011324;28;20466;-76
2023/08/26 03:15:56;;;;;;;20.65;12.63;;;;;;;22.60;84.32;95154.25;4987032;28;20812;-77
2023/08/26 03:18:22;;;;;;;21.73;12.50;;;;;;;22.51;84.91;95154.00;5028031;28;20232;-77
2023/08/26 03:20:47;;;;;;;19.88;12.20;;;;;;;22.47;85.27;95160.94;5003567;28;20230;-76
2023/08/26 03:23:13;;;;;;;19.02;12.70;;;;;;;22.54;84.68;95160.66;5011539;28;20233;-76
2023/08/26 03:25:39;;;;;;;21.65;12.60;;;;;;;22.34;85.75;95156.13;5024535;28;20272;-76
2023/08/26 03:28:05;;;;;;;18.17;12.50;;;;;;;22.43;85.66;95156.38;5013635;28;20233;-76
2023/08/26 03:30:31;;;;;;;18.35;12.10;;;;;;;22.40;85.81;95159.59;5028081;28;20240;-77
2023/08/26 03:32:57;;;;;;;19.10;12.60;;;;;;;22.00;87.34;95158.50;5014485;28;20230;-74
2023/08/26 03:35:22;;;;;;;22.15;12.65;;;;;;;22.23;86.63;95159.06;5013101;28;20227;-74
2023/08/26 03:37:48;;;;;;;17.02;12.43;;;;;;;22.27;85.98;95165.44;5029419;28;20290;-74
2023/08/26 03:40:14;;;;;;;18.08;12.15;;;;;;;22.20;86.35;95176.38;5034870;28;20271;-74
2023/08/26 03:42:40;;;;;;;18.50;13.23;;;;;;;22.14;86.78;95172.91;4997740;28;20618;-76
2023/08/26 03:45:06;;;;;;;19.77;12.90;;;;;;;21.93;87.86;95175.81;5012255;28;20233;-76
2023/08/26 03:47:32;;;;;;;21.48;12.77;;;;;;;22.14;87.01;95188.09;5013911;28;20224;-76
2023/08/26 03:49:58;;;;;;;18.08;12.23;;;;;;;22.24;86.21;95182.78;5011098;28;20681;-76
2023/08/26 03:52:24;;;;;;;22.58;12.82;;;;;;;22.35;85.52;95175.59;5008774;28;20229;-77
2023/08/26 03:54:49;;;;;;;20.60;12.68;;;;;;;22.28;85.63;95177.72;5000036;28;20900;-76
2023/08/26 03:57:15;;;;;;;20.92;12.45;;;;;;;22.45;85.10;95178.28;5013184;28;20221;-76
2023/08/26 03:59:40;;;;;;;23.10;12.77;;;;;;;22.26;85.55;95180.66;5037091;28;20237;-76
2023/08/26 04:02:06;;;;;;;21.77;12.75;;;;;;;22.13;86.60;95181.19;5049701;28;20233;-76
2023/08/26 04:04:32;;;;;;;18.95;12.90;;;;;;;22.02;87.15;95187.53;5013558;28;20627;-76
2023/08/26 04:06:57;;;;;;;20.77;13.27;;;;;;;22.01;87.40;95185.97;5013265;28;20233;-76
2023/08/26 04:09:23;;;;;;;23.10;12.70;;;;;;;22.12;86.94;95185.72;5029046;28;20287;-77
2023/08/26 04:11:49;;;;;;;18.92;12.98;;;;;;;22.02;87.33;95182.22;5007978;28;20245;-75
2023/08/26 04:14:15;;;;;;;20.45;13.32;;;;;;;22.00;87.45;95185.16;4997782;28;20270;-78
2023/08/26 04:16:40;;;;;;;21.02;13.25;;;;;;;21.92;88.10;95180.34;4997157;28;20642;-76
2023/08/26 04:19:06;;;;;;;21.52;12.90;;;;;;;21.92;88.69;95190.22;5032996;28;20229;-75
2023/08/26 04:21:32;;;;;;;21.55;13.20;;;;;;;21.96;88.25;95191.28;5007286;28;20225;-76
2023/08/26 04:23:57;;;;;;;20.80;13.35;;;;;;;22.13;87.58;95192.66;4998131;28;20304;-77
2023/08/26 04:26:23;;;;;;;22.02;12.98;;;;;;;22.27;87.11;95197.47;5008865;28;20225;-76
2023/08/26 04:28:49;;;;;;;19.33;13.18;;;;;;;22.34;86.35;95198.00;5025644;28;20245;-77
2023/08/26 04:31:14;;;;;;;18.90;13.23;;;;;;;22.40;86.02;95194.28;5003971;28;20619;-77
2023/08/26 04:33:40;;;;;;;23.55;13.77;;;;;;;22.36;85.93;95187.84;5030385;28;20243;-75
2023/08/26 04:36:06;;;;;;;19.73;13.40;;;;;;;22.23;86.83;95191.88;5011045;28;20672;-75
2023/08/26 04:38:31;;;;;;;21.08;13.60;;;;;;;22.12;87.57;95192.91;4993436;28;20236;-76
2023/08/26 04:40:57;;;;;;;18.65;13.20;;;;;;;22.30;86.92;95189.75;5027369;28;20227;-77
2023/08/26 04:43:25;;;;;;;18.23;13.18;;;;;;;22.42;86.09;95192.94;5011219;28;20224;-77
2023/08/26 04:45:52;;;;;;;22.95;13.77;;;;;;;22.38;86.77;95196.41;5030093;28;20240;-76
2023/08/26 04:48:18;;;;;;;23.73;13.60;;;;;;;22.62;85.38;95198.31;5012037;28;20222;-75
2023/08/26 04:50:43;;;;;;;23.08;13.20;;;;;;;22.65;85.35;95192.44;4995594;28;20226;-76
2023/08/26 04:53:09;;;;;;;21.15;13.88;;;;;;;22.68;85.25;95201.78;5001533;28;20244;-76
2023/08/26 04:55:34;;;;;;;24.00;13.70;;;;;;;22.58;86.15;95201.75;5006803;28;20232;-75
2023/08/26 04:58:00;;;;;;;22.10;13.57;;;;;;;22.67;85.96;95200.97;4991100;28;20287;-77
2023/08/26 05:00:26;;;;;;;23.20;14.20;;;;;;;22.74;84.78;95206.84;5011667;28;20220;-76
2023/08/26 05:02:52;;;;;;;26.58;13.80;;;;;;;22.83;84.67;95206.31;5013620;28;20235;-77
2023/08/26 05:05:18;;;;;;;25.40;14.88;;;;;;;22.91;84.20;95203.06;5009715;28;20213;-76
2023/08/26 05:07:43;;;;;;;23.70;14.55;;;;;;;23.00;84.41;95198.81;5017319;28;20346;-76
2023/08/26 05:10:09;;;;;;;23.85;14.48;;;;;;;23.01;84.67;95197.72;5026408;28;20681;-75
2023/08/26 05:12:35;;;;;;;23.75;15.15;;;;;;;23.11;83.29;95197.72;5014423;28;20354;-75
2023/08/26 05:15:02;;;;;;;27.48;15.85;;;;;;;23.26;83.08;95187.78;4999807;28;20225;-76
2023/08/26 05:17:28;;;;;;;22.80;15.13;;;;;;;23.34;83.21;95191.78;5027473;28;20320;-75
2023/08/26 05:19:53;;;;;;;24.15;14.70;;;;;;;23.50;82.95;95192.56;5017910;28;20227;-76
2023/08/26 05:22:19;;;;;;;22.83;14.13;;;;;;;23.20;84.55;95196.09;5014988;28;20236;-76
2023/08/26 05:24:44;;;;;;;28.42;15.48;;;;;;;23.38;83.02;95203.56;4986214;28;20234;-76
2023/08/26 05:27:10;;;;;;;25.80;15.10;;;;;;;23.50;82.68;95200.59;5011493;28;20219;-76
2023/08/26 05:29:35;;;;;;;24.70;15.15;;;;;;;23.47;84.01;95199.25;5002139;28;20712;-76
2023/08/26 05:32:01;;;;;;;23.85;14.02;;;;;;;23.35;85.33;95198.75;4998224;28;20224;-76
2023/08/26 05:34:26;;;;;;;23.02;14.55;;;;;;;23.39;84.12;95207.81;5029082;28;20286;-76
2023/08/26 05:36:52;;;;;;;26.15;15.52;;;;;;;23.33;83.79;95200.88;5017637;28;20635;-75
2023/08/26 05:39:17;;;;;;;26.88;14.93;;;;;;;23.47;83.36;95207.28;5032109;28;20282;-76
2023/08/26 05:41:43;;;;;;;25.35;15.13;;;;;;;23.55;84.81;95209.34;5012263;28;20323;-76
2023/08/26 05:44:08;;;;;;;25.95;14.65;;;;;;;23.54;82.33;95201.63;5018689;28;20720;-77
2023/08/26 05:46:34;;;;;;;26.55;16.00;;;;;;;23.55;82.10;95204.00;5016417;28;21182;-75
2023/08/26 05:48:59;;;;;;;27.05;15.07;;;;;;;23.73;81.10;95213.31;5017323;28;20283;-76
2023/08/26 05:51:25;;;;;;;25.92;15.15;;;;;;;23.86;80.09;95205.47;5029316;28;20213;-76
2023/08/26 05:53:50;;;;;;;21.48;14.77;;;;;;;23.84;82.52;95204.97;5008599;28;20237;-76
2023/08/26 05:56:16;;;;;;;30.23;15.57;;;;;;;23.79;82.40;95210.31;5014870;28;20623;-75
2023/08/26 05:58:41;;;;;;;23.58;14.75;;;;;;;23.80;81.16;95203.91;5007797;28;20234;-76
2023/08/26 06:01:07;;;;;;;24.67;13.57;;;;;;;23.87;81.53;95207.09;5018993;28;20233;-76
2023/08/26 06:03:32;;;;;;;21.20;14.63;;;;;;;23.99;80.48;95204.09;5011387;28;20816;-75
2023/08/26 06:05:58;;;;;;;24.27;14.10;;;;;;;23.86;81.78;95197.47;5027657;28;20752;-76
2023/08/26 06:08:23;;;;;;;20.42;14.02;;;;;;;24.03;78.81;95213.16;5025126;28;20266;-76
2023/08/26 06:10:55;;;;;;;25.15;13.93;;;;;;;23.89;81.13;95201.47;5009095;28;20235;-76
2023/08/26 06:13:21;;;;;;;18.73;13.13;;;;;;;24.04;77.63;95210.22;5010789;28;20224;-74
2023/08/26 06:15:53;;;;;;;23.02;13.13;;;;;;;24.09;78.50;95204.06;5010960;28;20244;-75
2023/08/26 06:18:19;;;;;;;23.13;14.05;;;;;;;24.17;78.27;95203.47;5015154;28;20237;-76
2023/08/26 06:20:44;;;;;;;22.02;13.88;;;;;;;24.16;78.33;95201.88;5001616;28;20312;-76
2023/08/26 06:23:10;;;;;;;22.98;13.40;;;;;;;24.18;77.19;95206.94;5052879;28;20236;-76
2023/08/26 06:25:35;;;;;;;21.92;13.40;;;;;;;24.34;76.16;95208.44;5001966;28;20220;-77
2023/08/26 06:28:01;;;;;;;20.17;12.82;;;;;;;24.50;76.25;95212.63;4994894;28;20261;-75
2023/08/26 06:30:26;;;;;;;21.52;12.75;;;;;;;24.41;75.47;95206.28;5017742;28;20221;-75
2023/08/26 06:32:52;;;;;;;17.63;12.73;;;;;;;24.35;75.71;95207.38;5020670;28;20229;-75
2023/08/26 06:35:17;;;;;;;21.35;12.85;;;;;;;24.45;74.96;95218.00;5039783;28;20269;-76
2023/08/26 06:37:43;;;;;;;20.23;12.32;;;;;;;24.57;75.02;95218.47;5027403;28;20669;-75
2023/08/26 06:40:09;;;;;;;20.65;12.30;;;;;;;24.67;75.31;95218.38;5013614;28;20314;-75
2023/08/26 06:42:34;;;;;;;22.88;13.00;;;;;;;24.67;74.23;95221.06;5006263;28;20300;-77
2023/08/26 06:45:00;;;;;;;18.38;12.43;;;;;;;24.76;73.98;95219.38;5010937;28;20299;-75
2023/08/26 06:47:25;;;;;;;19.40;12.70;;;;;;;24.83;74.24;95219.09;5002479;28;20788;-75
2023/08/26 06:49:51;;;;;;;18.80;13.20;;;;;;;24.92;73.14;95225.41;5015227;28;20224;-76
2023/08/26 06:52:16;;;;;;;22.52;13.45;;;;;;;24.97;72.86;95220.81;4996351;28;20228;-75
2023/08/26 06:54:42;;;;;;;23.13;13.68;;;;;;;24.90;73.71;95220.34;4998834;28;20271;-76
2023/08/26 06:57:07;;;;;;;19.55;12.73;;;;;;;24.82;72.24;95218.28;4994439;28;20212;-76
2023/08/26 06:59:33;;;;;;;21.80;13.00;;;;;;;24.92;72.78;95223.53;5029349;28;20311;-77
2023/08/26 07:01:58;;;;;;;20.88;12.27;;;;;;;24.99;73.35;95225.91;5012727;28;20221;-76
2023/08/26 07:04:24;;;;;;;22.70;12.50;;;;;;;25.11;72.25;95229.81;5028097;28;20225;-74
2023/08/26 07:06:50;;;;;;;18.02;12.40;;;;;;;25.22;71.06;95228.63;5005679;28;20617;-76
2023/08/26 07:09:16;;;;;;;17.48;11.98;;;;;;;25.38;71.26;95229.28;4999977;28;20229;-75
2023/08/26 07:11:41;;;;;;;18.73;11.50;;;;;;;25.42;70.04;95231.09;4992921;28;20237;-75
2023/08/26 07:14:07;;;;;;;19.38;12.15;;;;;;;25.54;69.36;95230.72;5023436;28;20232;-76
2023/08/26 07:16:32;;;;;;;22.90;11.75;;;;;;;25.62;69.42;95226.63;5017697;28;20667;-76
2023/08/26 07:18:58;;;;;;;20.70;11.75;;;;;;;25.63;68.57;95218.28;5015488;28;20272;-76
2023/08/26 07:21:23;;;;;;;17.80;11.27;;;;;;;25.67;68.88;95218.53;5000659;28;20591;-74
2023/08/26 07:23:49;;;;;;;18.65;10.90;;;;;;;25.76;68.76;95220.28;5013997;28;20229;-73
2023/08/26 07:26:14;;;;;;;18.45;11.13;;;;;;;25.82;67.94;95221.00;5012761;28;20244;-74
2023/08/26 07:28:42;;;;;;;18.60;11.15;;;;;;;25.91;68.50;95219.31;5015578;28;20238;-74
2023/08/26 07:31:08;;;;;;;18.60;10.65;;;;;;;25.98;67.60;95219.75;4995331;28;20292;-73
2023/08/26 07:33:33;;;;;;;20.70;10.93;;;;;;;26.02;67.10;95226.13;4986561;28;20229;-75
2023/08/26 07:36:02;;;;;;;18.40;10.70;;;;;;;26.09;67.20;95218.50;5031002;28;20226;-76
2023/08/26 07:38:28;;;;;;;21.17;11.20;;;;;;;26.19;66.08;95220.28;5017993;28;20228;-75
2023/08/26 07:40:53;;;;;;;19.80;11.07;;;;;;;26.28;66.73;95219.34;4986457;28;20235;-76
2023/08/26 07:43:18;;;;;;;20.77;10.80;;;;;;;26.37;65.95;95212.22;5032994;28;20233;-76
2023/08/26 07:45:44;;;;;;;18.15;11.27;;;;;;;26.43;65.95;95215.66;5016308;28;20225;-76
2023/08/26 07:48:09;;;;;;;17.65;10.75;;;;;;;26.52;65.60;95211.22;5028118;28;20229;-75
2023/08/26 07:50:35;;;;;;;18.25;11.05;;;;;;;26.60;64.55;95219.41;5005414;28;20228;-76
2023/08/26 07:53:00;;;;;;;23.73;10.98;;;;;;;26.69;64.81;95208.78;5012120;28;20252;-76
2023/08/26 07:55:26;;;;;;;16.45;10.20;;;;;;;26.80;64.94;95209.47;5004227;28;20622;-76
2023/08/26 07:57:51;;;;;;;15.77;9.60;;;;;;;27.06;61.64;95205.25;5001699;28;21292;-76
2023/08/26 08:00:17;;;;;;;17.45;9.77;;;;;;;27.07;62.46;95198.78;5014159;28;20221;-75
2023/08/26 08:02:43;;;;;;;12.63;9.48;;;;;;;27.12;61.00;95196.81;5031563;28;20719;-76
2023/08/26 08:05:08;;;;;;;11.75;9.10;;;;;;;27.18;61.00;95200.19;4998060;28;20225;-76
2023/08/26 08:07:34;;;;;;;16.35;9.88;;;;;;;27.27;61.17;95199.19;5005105;28;20217;-76
2023/08/26 08:09:59;;;;;;;15.38;9.70;;;;;;;27.49;59.54;95198.53;5028925;28;20225;-75
2023/08/26 08:12:24;;;;;;;15.43;9.63;;;;;;;27.52;59.20;95200.66;5005770;28;20766;-75
2023/08/26 08:14:50;;;;;;;14.85;9.55;;;;;;;27.46;58.96;95190.28;5037666;28;20288;-75
2023/08/26 08:17:16;;;;;;;13.80;9.63;;;;;;;27.53;59.58;95191.50;5023883;28;20221;-74
2023/08/26 08:19:45;;;;;;;19.08;9.40;;;;;;;27.70;59.34;95196.28;5026027;28;20225;-76
2023/08/26 08:22:12;;;;;;;17.17;9.63;;;;;;;27.79;58.65;95189.09;4992502;28;20227;-76
2023/08/26 08:24:38;;;;;;;14.43;9.80;;;;;;;27.83;58.94;95184.69;5021645;28;20225;-75
2023/08/26 08:27:03;;;;;;;13.65;9.07;;;;;;;28.08;57.33;95191.47;5006534;28;20221;-75
2023/08/26 08:29:29;;;;;;;15.13;9.93;;;;;;;28.17;55.71;95185.06;5002145;28;20918;-76
2023/08/26 08:31:55;;;;;;;12.13;9.07;;;;;;;28.23;56.53;95180.38;5036989;28;20755;-76
2023/08/26 08:34:21;;;;;;;12.82;9.30;;;;;;;28.34;55.55;95179.03;5023271;28;20321;-76
2023/08/26 08:36:46;;;;;;;14.20;9.07;;;;;;;28.37;56.39;95186.50;5025638;28;20258;-75
2023/08/26 08:39:12;;;;;;;12.43;8.93;;;;;;;28.48;55.50;95183.28;5000091;28;20236;-75
2023/08/26 08:41:37;;;;;;;12.57;9.32;;;;;;;28.52;55.94;95184.25;5012358;28;20331;-76
2023/08/26 08:44:09;;;;;;;18.10;9.57;;;;;;;28.53;55.29;95179.66;5002117;28;20230;-75
2023/08/26 08:46:35;;;;;;;14.45;9.10;;;;;;;28.67;55.46;95178.53;5010146;28;20652;-76
2023/08/26 08:49:01;;;;;;;16.50;9.02;;;;;;;28.86;55.27;95175.63;5013253;28;20260;-76
2023/08/26 08:51:27;;;;;;;13.55;9.23;;;;;;;28.89;54.77;95180.41;5007757;28;20286;-75
2023/08/26 08:53:53;;;;;;;11.77;9.15;;;;;;;29.03;54.34;95180.31;5014712;28;20707;-76
2023/08/26 08:56:18;;;;;;;16.52;9.35;;;;;;;29.18;53.37;95182.63;4996162;28;20233;-76
2023/08/26 08:58:51;;;;;;;13.25;9.30;;;;;;;29.27;52.40;95181.59;4988562;28;20233;-75
2023/08/26 09:01:17;;;;;;;16.33;10.40;;;;;;;29.31;53.07;95182.56;5008071;28;21145;-76
2023/08/26 09:03:43;;;;;;;15.18;9.90;;;;;;;29.24;52.60;95173.31;5011286;28;20247;-76
2023/08/26 09:06:08;;;;;;;13.73;10.15;;;;;;;29.31;53.06;95173.66;5015018;28;20221;-76
2023/08/26 09:08:34;;;;;;;12.35;9.35;;;;;;;29.43;52.54;95170.38;5001874;28;20229;-76
2023/08/26 09:11:00;;;;;;;15.13;9.90;;;;;;;29.49;51.92;95159.16;4992974;28;20225;-75
2023/08/26 09:13:26;;;;;;;12.23;9.40;;;;;;;29.56;51.60;95164.09;4992839;28;20226;-76
2023/08/26 09:15:51;;;;;;;13.60;9.20;;;;;;;29.66;52.02;95156.53;5009932;28;20234;-76
2023/08/26 09:18:19;;;;;;;16.83;9.35;;;;;;;29.75;50.76;95165.44;5023223;28;20287;-77
2023/08/26 09:20:46;;;;;;;16.58;9.55;;;;;;;29.88;50.41;95163.72;5018173;28;20225;-77
2023/08/26 09:23:11;;;;;;;13.60;9.68;;;;;;;29.88;50.77;95169.94;5017004;28;20319;-75
2023/08/26 09:25:42;;;;;;;15.13;9.80;;;;;;;29.89;50.06;95162.63;5016898;28;20305;-76
2023/08/26 09:28:10;;;;;;;13.73;9.50;;;;;;;30.04;49.17;95161.38;4990948;28;20315;-76
2023/08/26 09:30:35;;;;;;;12.77;9.80;;;;;;;29.91;48.75;95165.81;5014233;28;20228;-76
2023/08/26 09:33:00;;;;;;;11.48;9.52;;;;;;;29.95;49.16;95155.94;5015690;28;20237;-75
2023/08/26 09:35:26;;;;;;;14.10;9.55;;;;;;;29.95;50.54;95156.75;5014593;28;20224;-76
2023/08/26 09:37:58;;;;;;;14.45;9.35;;;;;;;30.11;48.87;95151.69;5019003;28;20321;-75
2023/08/26 09:40:24;;;;;;;12.68;9.48;;;;;;;30.12;49.78;95149.81;5029185;28;20228;-76
2023/08/26 09:42:50;;;;;;;14.75;9.80;;;;;;;30.10;49.08;95146.59;5015614;28;20362;-77
2023/08/26 09:45:17;;;;;;;14.93;9.52;;;;;;;30.21;49.52;95140.59;5021528;28;20307;-76
2023/08/26 09:47:42;;;;;;;13.40;9.50;;;;;;;30.50;47.79;95139.97;5025164;28;20639;-75
2023/08/26 09:50:08;;;;;;;11.27;9.55;;;;;;;30.65;47.23;95140.28;5014789;28;20218;-75
2023/08/26 09:52:54;;;;;;;13.48;9.60;;;;;;;30.72;45.79;95138.97;5015449;28;20237;-76
2023/08/26 09:55:20;;;;;;;11.82;9.20;;;;;;;30.69;46.04;95128.81;5020476;28;20299;-76
2023/08/26 09:57:47;;;;;;;11.65;8.80;;;;;;;30.78;46.54;95125.00;5013789;28;20245;-77
2023/08/26 10:00:19;;;;;;;13.35;9.18;;;;;;;30.83;46.20;95129.44;5031191;28;20320;-76
2023/08/26 10:02:49;;;;;;;12.35;8.93;;;;;;;30.54;44.25;95132.81;4990129;28;20329;-78
2023/08/26 10:05:21;;;;;;;13.00;8.48;;;;;;;30.69;44.62;95120.72;5027688;28;20224;-76
2023/08/26 10:07:50;;;;;;;15.40;8.68;;;;;;;30.75;44.04;95122.13;5030369;28;20256;-75
2023/08/26 10:10:22;;;;;;;11.88;8.27;;;;;;;30.80;44.16;95124.66;5008450;28;20221;-77
2023/08/26 10:12:47;;;;;;;11.52;8.68;;;;;;;30.88;44.21;95119.22;5032966;28;20254;-74
2023/08/26 10:15:14;;;;;;;11.68;8.80;;;;;;;30.89;43.78;95111.94;5000698;28;20353;-75
2023/08/26 10:17:41;;;;;;;11.00;8.57;;;;;;;31.07;42.67;95111.56;5009324;28;20233;-76
2023/08/26 10:20:08;;;;;;;12.57;7.85;;;;;;;31.32;40.77;95118.00;5017914;28;20225;-76
2023/08/26 10:22:33;;;;;;;11.40;7.80;;;;;;;31.51;39.51;95115.69;4988059;28;20229;-76
2023/08/26 10:24:59;;;;;;;11.18;7.75;;;;;;;31.49;41.02;95114.44;5024200;28;20225;-76
2023/08/26 10:27:24;;;;;;;14.07;8.73;;;;;;;31.49;42.48;95117.94;5006066;28;20299;-76
2023/08/26 10:29:50;;;;;;;10.90;8.82;;;;;;;31.55;41.71;95107.72;5015977;28;20229;-76
2023/08/26 10:32:17;;;;;;;11.75;8.50;;;;;;;31.62;41.92;95119.59;5010584;28;20681;-76
2023/08/26 10:34:54;;;;;;;12.57;8.48;;;;;;;31.71;41.47;95103.34;5034931;28;20225;-76
2023/08/26 10:37:25;;;;;;;12.48;8.25;;;;;;;31.83;41.03;95104.22;5022797;28;20229;-75
2023/08/26 10:39:50;;;;;;;14.43;8.15;;;;;;;32.04;40.15;95103.44;5034401;28;20264;-77
2023/08/26 10:42:16;;;;;;;10.63;8.40;;;;;;;32.21;39.80;95101.41;5010113;28;20225;-77
2023/08/26 10:44:53;;;;;;;12.35;8.48;;;;;;;32.30;40.38;95099.41;4990901;28;20257;-76
2023/08/26 10:47:44;;;;;;;13.77;8.15;;;;;;;32.15;38.80;95099.25;5009020;28;20230;-77
2023/08/26 10:50:26;;;;;;;11.50;8.70;;;;;;;31.55;40.24;95099.63;5023277;28;20229;-76
2023/08/26 10:52:58;;;;;;;10.80;8.70;;;;;;;31.28;41.71;95092.72;5018476;28;20312;-77
2023/08/26 10:55:28;;;;;;;15.07;8.98;;;;;;;31.61;40.63;95088.25;5004826;28;20222;-77
2023/08/26 10:58:00;;;;;;;11.77;9.02;;;;;;;31.94;39.98;95081.03;5001577;28;20232;-77
2023/08/26 11:00:26;;;;;;;10.25;8.63;;;;;;;32.01;39.21;95091.34;5020859;28;20239;-77
2023/08/26 11:02:51;;;;;;;13.50;9.10;;;;;;;32.12;40.94;95078.22;5029751;28;20222;-77
2023/08/26 11:05:17;;;;;;;12.95;8.70;;;;;;;32.31;38.47;95083.94;5001600;28;20222;-78
2023/08/26 11:07:43;;;;;;;11.30;8.93;;;;;;;32.37;39.47;95086.13;5029074;28;20228;-76
2023/08/26 11:10:19;;;;;;;12.77;9.38;;;;;;;32.39;39.79;95085.78;5031498;28;20225;-76
2023/08/26 11:12:46;;;;;;;13.75;9.18;;;;;;;32.05;38.14;95080.66;4998014;28;20230;-76
2023/08/26 11:15:12;;;;;;;14.63;8.93;;;;;;;32.15;38.32;95081.03;5028159;28;20371;-76